»·PEaware :: N476WK KSBD-KPSP

N476WK :: KSBD-KPSP

FLIGHT INFORMATION

Flight Status: Arrived
Operator: Privately registered:
United States
More flights under this callsign
Pilot: Kris Z. (17393)
Aircraft: CESSNA 172 SKYHAWK
(C172)
More flights by this aircraft type
Origin: KSBD San Bernardino Intl
United States
Destination: KPSP Palm Springs Intl
United States
More flights between these airports :: More routes between these airports
Route: KBNG
File this flight plan on PilotEdge
Remarks:
Altitude:
(Current/Filed)
7,500ft
Speed:
(Current/Filed)
100kts
Departed: 09-Dec-17 12:35 PM
Arrived: 09-Dec-17 01:05 PM
Distance/Time
Traveled:
40nm/0:30
Distance/Time
To Go:
Arrived

Flight Plot

Page will automatically refresh every two minutes.

Flight plan parsing failed; only flown route is shown


Map Options




Map Legend


Flown Route
Filed Route
Departure Airport
Arrival Airport
Navaid (VOR, NDB)
Fix

Horizontal Profiles

Position Reports

Time Latitude Longitude Heading Altitude Ground
Speed
09-Dec-17 12:07 34.102166 -117.224730 94 1146ft 0kts
09-Dec-17 12:08 34.102171 -117.224580 79 1146ft 0kts
09-Dec-17 12:09 34.102171 -117.224580 79 1146ft 0kts
09-Dec-17 12:10 34.102171 -117.224580 79 1146ft 0kts
09-Dec-17 12:11 34.102171 -117.224580 79 1146ft 0kts
09-Dec-17 12:12 34.102171 -117.224580 79 1146ft 0kts
09-Dec-17 12:13 34.102171 -117.224580 79 1146ft 0kts
09-Dec-17 12:14 34.102171 -117.224580 79 1146ft 0kts
09-Dec-17 12:15 34.102171 -117.224580 79 1146ft 0kts
09-Dec-17 12:16 34.102171 -117.224580 79 1146ft 0kts
09-Dec-17 12:17 34.102171 -117.224580 79 1146ft 0kts
09-Dec-17 12:22 34.102165 -117.224712 92 1146ft 0kts
09-Dec-17 12:23 34.102165 -117.224712 92 1146ft 0kts
09-Dec-17 12:24 34.102166 -117.224660 85 1146ft 2kts
09-Dec-17 12:25 34.102169 -117.224628 74 1146ft 0kts
09-Dec-17 12:26 34.102169 -117.224628 74 1146ft 0kts
09-Dec-17 12:27 34.102169 -117.224628 74 1146ft 0kts
09-Dec-17 12:28 34.102169 -117.224628 74 1146ft 0kts
09-Dec-17 12:29 34.102169 -117.224628 74 1146ft 0kts
09-Dec-17 12:30 34.102169 -117.224628 74 1146ft 0kts
09-Dec-17 12:31 34.102064 -117.224510 178 1146ft 7kts
09-Dec-17 12:32 34.100525 -117.225207 228 1145ft 11kts
09-Dec-17 12:33 34.098215 -117.227459 230 1137ft 8kts
09-Dec-17 12:34 34.098714 -117.229577 250 1133ft 19kts
09-Dec-17 12:35 34.096609 -117.236663 249 1113ft 20kts
09-Dec-17 12:36 34.094807 -117.241995 203 1099ft 9kts
09-Dec-17 12:37 34.094215 -117.242102 177 1099ft 0kts
09-Dec-17 12:38 34.094215 -117.242102 177 1099ft 0kts
09-Dec-17 12:39 34.094215 -117.242102 177 1099ft 0kts
09-Dec-17 12:40 34.094133 -117.242095 175 1099ft 3kts
09-Dec-17 12:41 34.093817 -117.239868 70 1103ft 49kts
09-Dec-17 12:42 34.104209 -117.212514 59 1677ft 103kts
09-Dec-17 12:43 34.097757 -117.188912 166 2289ft 99kts
09-Dec-17 12:44 34.074936 -117.180896 160 2684ft 104kts
09-Dec-17 12:45 34.049692 -117.163202 143 3159ft 105kts
09-Dec-17 12:46 34.032199 -117.136916 115 3662ft 101kts
09-Dec-17 12:47 34.019734 -117.109859 109 4417ft 82kts
09-Dec-17 12:48 34.010643 -117.085071 110 5230ft 78kts
09-Dec-17 12:49 34.001204 -117.061568 109 5954ft 79kts
09-Dec-17 12:49 33.993394 -117.041811 106 6535ft 78kts
09-Dec-17 12:51 33.980278 -117.014698 109 7233ft 87kts
09-Dec-17 12:51 33.971179 -116.992437 109 7572ft 97kts
09-Dec-17 12:53 33.962820 -116.950328 101 7589ft 115kts
09-Dec-17 12:53 33.955388 -116.920587 105 7537ft 112kts
09-Dec-17 12:54 33.943701 -116.886050 106 7394ft 111kts
09-Dec-17 12:56 33.933859 -116.845198 100 7333ft 107kts
09-Dec-17 12:56 33.929242 -116.815987 93 7307ft 106kts
09-Dec-17 12:57 33.926051 -116.778942 94 6854ft 117kts
09-Dec-17 12:58 33.922828 -116.738936 93 6065ft 119kts
09-Dec-17 12:59 33.918327 -116.699146 94 5076ft 118kts
09-Dec-17 13:00 33.914060 -116.660889 102 4043ft 115kts
09-Dec-17 13:01 33.904391 -116.624151 113 3171ft 112kts
09-Dec-17 13:02 33.888322 -116.594334 130 2446ft 106kts
09-Dec-17 13:03 33.871705 -116.568583 126 1880ft 97kts
09-Dec-17 13:04 33.865146 -116.539548 101 1742ft 87kts
09-Dec-17 13:05 33.855551 -116.514044 127 1590ft 87kts
09-Dec-17 13:06 33.837926 -116.495629 143 1491ft 70kts
09-Dec-17 13:07 33.822856 -116.481862 143 1275ft 60kts
09-Dec-17 13:08 33.810346 -116.481739 254 920ft 53kts
09-Dec-17 13:09 33.817323 -116.496654 318 742ft 62kts
09-Dec-17 13:10 33.831122 -116.506068 321 425ft 36kts
09-Dec-17 13:11 33.835390 -116.509168 61 436ft 0kts
09-Dec-17 13:12 33.834020 -116.507662 145 432ft 21kts
09-Dec-17 13:13 33.830023 -116.504141 142 419ft 13kts
09-Dec-17 13:14 33.825751 -116.500388 140 406ft 23kts
09-Dec-17 13:15 33.823913 -116.498869 8 400ft 0kts
09-Dec-17 13:16 33.823937 -116.498850 51 400ft 0kts
09-Dec-17 13:17 33.823937 -116.498850 51 400ft 0kts

Navigation Log

Ident Type
Flight plan parsing failed, navigation log unavailable